sensor_id;sensor_type;location;lat;lon;timestamp;temperature;humidity
2873;DHT22;1444;49.166;7.312;2023-07-22T00:02:00;16.10;94.50
2873;DHT22;1444;49.166;7.312;2023-07-22T00:04:27;17.50;95.40
2873;DHT22;1444;49.166;7.312;2023-07-22T00:06:53;17.50;95.40
2873;DHT22;1444;49.166;7.312;2023-07-22T00:09:20;17.50;95.30
2873;DHT22;1444;49.166;7.312;2023-07-22T00:11:49;17.40;95.60
2873;DHT22;1444;49.166;7.312;2023-07-22T00:14:18;17.30;95.80
2873;DHT22;1444;49.166;7.312;2023-07-22T00:16:45;17.30;95.50
2873;DHT22;1444;49.166;7.312;2023-07-22T00:19:11;17.30;95.20
2873;DHT22;1444;49.166;7.312;2023-07-22T00:21:39;17.20;95.20
2873;DHT22;1444;49.166;7.312;2023-07-22T00:24:06;17.30;95.70
2873;DHT22;1444;49.166;7.312;2023-07-22T00:26:33;17.30;95.70
2873;DHT22;1444;49.166;7.312;2023-07-22T00:29:00;17.20;95.30
2873;DHT22;1444;49.166;7.312;2023-07-22T00:31:29;17.20;95.70
2873;DHT22;1444;49.166;7.312;2023-07-22T00:33:56;17.10;95.70
2873;DHT22;1444;49.166;7.312;2023-07-22T00:36:23;17.10;96.10
2873;DHT22;1444;49.166;7.312;2023-07-22T00:38:50;17.10;95.80
2873;DHT22;1444;49.166;7.312;2023-07-22T00:41:18;17.10;95.50
2873;DHT22;1444;49.166;7.312;2023-07-22T00:43:45;17.10;95.60
2873;DHT22;1444;49.166;7.312;2023-07-22T00:46:11;17.10;96.00
2873;DHT22;1444;49.166;7.312;2023-07-22T00:48:40;17.10;96.10
2873;DHT22;1444;49.166;7.312;2023-07-22T00:51:08;17.10;96.30
2873;DHT22;1444;49.166;7.312;2023-07-22T00:53:35;17.10;96.40
2873;DHT22;1444;49.166;7.312;2023-07-22T00:56:02;17.10;96.60
2873;DHT22;1444;49.166;7.312;2023-07-22T00:58:29;17.10;96.10
2873;DHT22;1444;49.166;7.312;2023-07-22T01:00:56;17.10;96.00
2873;DHT22;1444;49.166;7.312;2023-07-22T01:03:23;17.10;96.20
2873;DHT22;1444;49.166;7.312;2023-07-22T01:05:53;17.00;96.40
2873;DHT22;1444;49.166;7.312;2023-07-22T01:08:22;16.80;96.70
2873;DHT22;1444;49.166;7.312;2023-07-22T01:10:49;16.70;97.20
2873;DHT22;1444;49.166;7.312;2023-07-22T01:13:16;16.60;97.00
2873;DHT22;1444;49.166;7.312;2023-07-22T01:15:43;16.60;96.90
2873;DHT22;1444;49.166;7.312;2023-07-22T01:18:09;16.60;96.90
2873;DHT22;1444;49.166;7.312;2023-07-22T01:20:36;16.60;97.20
2873;DHT22;1444;49.166;7.312;2023-07-22T01:23:04;16.60;97.50
2873;DHT22;1444;49.166;7.312;2023-07-22T01:25:32;16.60;97.50
2873;DHT22;1444;49.166;7.312;2023-07-22T01:27:59;16.60;97.30
2873;DHT22;1444;49.166;7.312;2023-07-22T01:30:25;16.60;97.00
2873;DHT22;1444;49.166;7.312;2023-07-22T01:32:53;16.60;96.80
2873;DHT22;1444;49.166;7.312;2023-07-22T01:35:20;18.90;98.20
2873;DHT22;1444;49.166;7.312;2023-07-22T01:37:46;16.50;97.60
2873;DHT22;1444;49.166;7.312;2023-07-22T01:40:15;16.50;97.50
2873;DHT22;1444;49.166;7.312;2023-07-22T01:42:43;16.50;97.40
2873;DHT22;1444;49.166;7.312;2023-07-22T01:45:10;16.40;97.80
2873;DHT22;1444;49.166;7.312;2023-07-22T01:47:38;16.20;98.10
2873;DHT22;1444;49.166;7.312;2023-07-22T01:50:06;16.00;98.40
2873;DHT22;1444;49.166;7.312;2023-07-22T01:52:33;15.90;98.60
2873;DHT22;1444;49.166;7.312;2023-07-22T01:55:00;16.00;98.50
2873;DHT22;1444;49.166;7.312;2023-07-22T01:57:32;16.00;98.20
2873;DHT22;1444;49.166;7.312;2023-07-22T01:59:59;16.10;98.20
2873;DHT22;1444;49.166;7.312;2023-07-22T02:02:26;16.20;98.30
2873;DHT22;1444;49.166;7.312;2023-07-22T02:04:53;16.20;98.20
2873;DHT22;1444;49.166;7.312;2023-07-22T02:07:20;16.20;98.10
2873;DHT22;1444;49.166;7.312;2023-07-22T02:09:47;16.20;98.10
2873;DHT22;1444;49.166;7.312;2023-07-22T02:12:17;16.20;98.10
2873;DHT22;1444;49.166;7.312;2023-07-22T02:14:45;16.10;98.30
2873;DHT22;1444;49.166;7.312;2023-07-22T02:17:12;16.10;98.50
2873;DHT22;1444;49.166;7.312;2023-07-22T02:19:39;15.90;98.90
2873;DHT22;1444;49.166;7.312;2023-07-22T02:22:06;15.70;99.40
2873;DHT22;1444;49.166;7.312;2023-07-22T02:24:33;15.70;99.60
2873;DHT22;1444;49.166;7.312;2023-07-22T02:27:00;15.60;99.70
2873;DHT22;1444;49.166;7.312;2023-07-22T02:29:26;15.60;99.70
2873;DHT22;1444;49.166;7.312;2023-07-22T02:31:55;15.60;99.20
2873;DHT22;1444;49.166;7.312;2023-07-22T02:34:21;15.70;98.90
2873;DHT22;1444;49.166;7.312;2023-07-22T02:36:48;15.70;98.90
2873;DHT22;1444;49.166;7.312;2023-07-22T02:39:15;15.70;98.90
2873;DHT22;1444;49.166;7.312;2023-07-22T02:41:43;15.80;98.70
2873;DHT22;1444;49.166;7.312;2023-07-22T02:44:10;15.80;98.50
2873;DHT22;1444;49.166;7.312;2023-07-22T02:46:38;15.70;98.70
2873;DHT22;1444;49.166;7.312;2023-07-22T02:49:06;15.60;99.10
2873;DHT22;1444;49.166;7.312;2023-07-22T02:51:33;15.50;98.80
2873;DHT22;1444;49.166;7.312;2023-07-22T02:54:00;15.40;99.00
2873;DHT22;1444;49.166;7.312;2023-07-22T02:56:27;15.20;99.20
2873;DHT22;1444;49.166;7.312;2023-07-22T02:58:54;16.80;99.90
2873;DHT22;1444;49.166;7.312;2023-07-22T03:01:20;14.90;99.80
2873;DHT22;1444;49.166;7.312;2023-07-22T03:03:47;14.80;99.90
2873;DHT22;1444;49.166;7.312;2023-07-22T03:06:15;14.70;99.90
2873;DHT22;1444;49.166;7.312;2023-07-22T03:08:42;12.50;99.50
2873;DHT22;1444;49.166;7.312;2023-07-22T03:11:09;14.60;99.90
2873;DHT22;1444;49.166;7.312;2023-07-22T03:13:36;14.60;99.90
2873;DHT22;1444;49.166;7.312;2023-07-22T03:16:03;14.70;99.90
2873;DHT22;1444;49.166;7.312;2023-07-22T03:18:30;14.60;99.90
2873;DHT22;1444;49.166;7.312;2023-07-22T03:20:57;14.60;99.90
2873;DHT22;1444;49.166;7.312;2023-07-22T03:23:26;14.60;99.90
2873;DHT22;1444;49.166;7.312;2023-07-22T03:25:52;14.70;99.90
2873;DHT22;1444;49.166;7.312;2023-07-22T03:28:19;14.80;99.90
2873;DHT22;1444;49.166;7.312;2023-07-22T03:30:46;14.90;99.90
2873;DHT22;1444;49.166;7.312;2023-07-22T03:33:13;15.00;99.90
2873;DHT22;1444;49.166;7.312;2023-07-22T03:35:40;15.10;99.90
2873;DHT22;1444;49.166;7.312;2023-07-22T03:38:07;15.00;99.90
2873;DHT22;1444;49.166;7.312;2023-07-22T03:40:37;15.00;99.90
2873;DHT22;1444;49.166;7.312;2023-07-22T03:43:03;14.90;99.90
2873;DHT22;1444;49.166;7.312;2023-07-22T03:45:30;14.90;99.90
2873;DHT22;1444;49.166;7.312;2023-07-22T03:47:59;14.90;99.90
2873;DHT22;1444;49.166;7.312;2023-07-22T03:50:26;14.90;99.90
2873;DHT22;1444;49.166;7.312;2023-07-22T03:52:53;14.90;99.90
2873;DHT22;1444;49.166;7.312;2023-07-22T03:55:20;14.90;99.90
2873;DHT22;1444;49.166;7.312;2023-07-22T03:57:48;14.90;99.90
2873;DHT22;1444;49.166;7.312;2023-07-22T04:00:16;14.80;99.90
2873;DHT22;1444;49.166;7.312;2023-07-22T04:02:43;14.70;99.90
2873;DHT22;1444;49.166;7.312;2023-07-22T04:05:10;14.70;99.90
2873;DHT22;1444;49.166;7.312;2023-07-22T04:07:37;14.60;99.90
2873;DHT22;1444;49.166;7.312;2023-07-22T04:10:05;14.60;99.90
2873;DHT22;1444;49.166;7.312;2023-07-22T04:12:32;14.60;99.90
2873;DHT22;1444;49.166;7.312;2023-07-22T04:15:00;14.70;99.90
2873;DHT22;1444;49.166;7.312;2023-07-22T04:17:27;14.80;99.90
2873;DHT22;1444;49.166;7.312;2023-07-22T04:19:55;14.80;99.90
2873;DHT22;1444;49.166;7.312;2023-07-22T04:22:21;14.80;99.90
2873;DHT22;1444;49.166;7.312;2023-07-22T04:24:48;14.90;99.90
2873;DHT22;1444;49.166;7.312;2023-07-22T04:27:16;14.80;99.90
2873;DHT22;1444;49.166;7.312;2023-07-22T04:29:43;14.70;99.90
2873;DHT22;1444;49.166;7.312;2023-07-22T04:32:11;14.60;99.90
2873;DHT22;1444;49.166;7.312;2023-07-22T04:34:38;14.60;99.90
2873;DHT22;1444;49.166;7.312;2023-07-22T04:37:05;14.60;99.90
2873;DHT22;1444;49.166;7.312;2023-07-22T04:39:32;14.60;99.90
2873;DHT22;1444;49.166;7.312;2023-07-22T04:41:59;14.50;99.90
2873;DHT22;1444;49.166;7.312;2023-07-22T04:44:27;14.50;99.90
2873;DHT22;1444;49.166;7.312;2023-07-22T04:46:54;14.50;99.90
2873;DHT22;1444;49.166;7.312;2023-07-22T04:49:22;14.50;99.90
2873;DHT22;1444;49.166;7.312;2023-07-22T04:51:49;14.60;99.90
2873;DHT22;1444;49.166;7.312;2023-07-22T04:54:16;14.70;99.90
2873;DHT22;1444;49.166;7.312;2023-07-22T04:56:43;14.80;99.90
2873;DHT22;1444;49.166;7.312;2023-07-22T04:59:10;14.90;99.90
2873;DHT22;1444;49.166;7.312;2023-07-22T05:01:39;15.10;99.90
2873;DHT22;1444;49.166;7.312;2023-07-22T05:04:06;15.20;99.90
2873;DHT22;1444;49.166;7.312;2023-07-22T05:06:34;15.40;99.90
2873;DHT22;1444;49.166;7.312;2023-07-22T05:09:01;15.60;99.90
2873;DHT22;1444;49.166;7.312;2023-07-22T05:11:29;15.20;99.90
2873;DHT22;1444;49.166;7.312;2023-07-22T05:13:56;15.80;99.90
2873;DHT22;1444;49.166;7.312;2023-07-22T05:16:23;15.90;99.90
2873;DHT22;1444;49.166;7.312;2023-07-22T05:18:49;15.90;99.90
2873;DHT22;1444;49.166;7.312;2023-07-22T05:21:17;16.10;99.90
2873;DHT22;1444;49.166;7.312;2023-07-22T05:23:45;16.20;99.90
2873;DHT22;1444;49.166;7.312;2023-07-22T05:26:12;16.40;99.90
2873;DHT22;1444;49.166;7.312;2023-07-22T05:28:39;16.50;99.90
2873;DHT22;1444;49.166;7.312;2023-07-22T05:31:06;16.60;99.90
2873;DHT22;1444;49.166;7.312;2023-07-22T05:33:33;16.70;99.90
2873;DHT22;1444;49.166;7.312;2023-07-22T05:36:00;16.80;99.90
2873;DHT22;1444;49.166;7.312;2023-07-22T05:38:27;16.90;99.90
2873;DHT22;1444;49.166;7.312;2023-07-22T05:40:55;17.00;99.90
2873;DHT22;1444;49.166;7.312;2023-07-22T05:43:22;17.10;99.90
2873;DHT22;1444;49.166;7.312;2023-07-22T05:45:49;17.10;99.90
2873;DHT22;1444;49.166;7.312;2023-07-22T05:48:16;17.20;99.90
2873;DHT22;1444;49.166;7.312;2023-07-22T05:50:43;17.30;99.90
2873;DHT22;1444;49.166;7.312;2023-07-22T05:53:11;17.50;99.90
2873;DHT22;1444;49.166;7.312;2023-07-22T05:55:38;17.50;99.60
2873;DHT22;1444;49.166;7.312;2023-07-22T05:58:06;17.60;99.40
2873;DHT22;1444;49.166;7.312;2023-07-22T06:00:33;17.60;99.00
2873;DHT22;1444;49.166;7.312;2023-07-22T06:03:00;17.70;98.60
2873;DHT22;1444;49.166;7.312;2023-07-22T06:05:27;17.70;99.90
2873;DHT22;1444;49.166;7.312;2023-07-22T06:07:54;17.80;99.30
2873;DHT22;1444;49.166;7.312;2023-07-22T06:10:22;17.80;98.10
2873;DHT22;1444;49.166;7.312;2023-07-22T06:12:49;17.70;98.40
2873;DHT22;1444;49.166;7.312;2023-07-22T06:15:17;17.70;97.90
2873;DHT22;1444;49.166;7.312;2023-07-22T06:17:44;16.70;98.00
2873;DHT22;1444;49.166;7.312;2023-07-22T06:20:11;17.70;98.70
2873;DHT22;1444;49.166;7.312;2023-07-22T06:22:39;17.90;99.00
2873;DHT22;1444;49.166;7.312;2023-07-22T06:25:06;17.90;98.60
2873;DHT22;1444;49.166;7.312;2023-07-22T06:27:33;18.10;98.60
2873;DHT22;1444;49.166;7.312;2023-07-22T06:30:00;18.30;98.40
2873;DHT22;1444;49.166;7.312;2023-07-22T06:32:29;18.40;98.00
2873;DHT22;1444;49.166;7.312;2023-07-22T06:34:56;18.60;97.80
2873;DHT22;1444;49.166;7.312;2023-07-22T06:37:23;18.70;98.00
2873;DHT22;1444;49.166;7.312;2023-07-22T06:39:50;18.70;97.90
2873;DHT22;1444;49.166;7.312;2023-07-22T06:42:17;18.80;97.30
2873;DHT22;1444;49.166;7.312;2023-07-22T06:44:44;19.00;97.80
2873;DHT22;1444;49.166;7.312;2023-07-22T06:47:11;19.10;97.90
2873;DHT22;1444;49.166;7.312;2023-07-22T06:49:39;19.20;97.40
2873;DHT22;1444;49.166;7.312;2023-07-22T06:52:07;19.30;96.70
2873;DHT22;1444;49.166;7.312;2023-07-22T06:54:34;19.40;97.20
2873;DHT22;1444;49.166;7.312;2023-07-22T06:57:01;19.30;95.80
2873;DHT22;1444;49.166;7.312;2023-07-22T06:59:28;19.30;96.50
2873;DHT22;1444;49.166;7.312;2023-07-22T07:01:55;19.40;96.60
2873;DHT22;1444;49.166;7.312;2023-07-22T07:04:21;19.60;96.10
2873;DHT22;1444;49.166;7.312;2023-07-22T07:06:50;19.80;96.50
2873;DHT22;1444;49.166;7.312;2023-07-22T07:09:17;19.90;95.60
2873;DHT22;1444;49.166;7.312;2023-07-22T07:11:44;20.00;95.80
2873;DHT22;1444;49.166;7.312;2023-07-22T07:14:12;20.00;95.00
2873;DHT22;1444;49.166;7.312;2023-07-22T07:16:39;20.10;95.10
2873;DHT22;1444;49.166;7.312;2023-07-22T07:19:06;20.20;95.30
2873;DHT22;1444;49.166;7.312;2023-07-22T07:21:32;20.30;95.10
2873;DHT22;1444;49.166;7.312;2023-07-22T07:24:01;20.40;94.60
2873;DHT22;1444;49.166;7.312;2023-07-22T07:26:28;20.40;95.00
2873;DHT22;1444;49.166;7.312;2023-07-22T07:28:55;20.50;94.20
2873;DHT22;1444;49.166;7.312;2023-07-22T07:31:22;20.80;93.70
2873;DHT22;1444;49.166;7.312;2023-07-22T07:33:48;20.80;93.70
2873;DHT22;1444;49.166;7.312;2023-07-22T07:36:15;20.80;93.40
2873;DHT22;1444;49.166;7.312;2023-07-22T07:38:42;20.80;93.80
2873;DHT22;1444;49.166;7.312;2023-07-22T07:41:10;20.90;94.20
2873;DHT22;1444;49.166;7.312;2023-07-22T07:43:38;20.80;94.20
2873;DHT22;1444;49.166;7.312;2023-07-22T07:46:16;20.90;94.70
2873;DHT22;1444;49.166;7.312;2023-07-22T07:48:45;20.80;93.30
2873;DHT22;1444;49.166;7.312;2023-07-22T07:51:12;20.80;93.70
2873;DHT22;1444;49.166;7.312;2023-07-22T07:53:40;20.80;94.20
2873;DHT22;1444;49.166;7.312;2023-07-22T07:56:09;20.90;94.90
2873;DHT22;1444;49.166;7.312;2023-07-22T07:58:37;21.00;93.20
2873;DHT22;1444;49.166;7.312;2023-07-22T08:01:04;21.10;92.80
2873;DHT22;1444;49.166;7.312;2023-07-22T08:03:32;21.20;92.50
2873;DHT22;1444;49.166;7.312;2023-07-22T08:05:58;21.20;92.70
2873;DHT22;1444;49.166;7.312;2023-07-22T08:08:25;21.30;92.70
2873;DHT22;1444;49.166;7.312;2023-07-22T08:10:59;21.30;92.00
2873;DHT22;1444;49.166;7.312;2023-07-22T08:13:28;21.40;92.50
2873;DHT22;1444;49.166;7.312;2023-07-22T08:15:56;21.50;92.90
2873;DHT22;1444;49.166;7.312;2023-07-22T08:18:23;21.70;92.50
2873;DHT22;1444;49.166;7.312;2023-07-22T08:20:51;21.80;91.90
2873;DHT22;1444;49.166;7.312;2023-07-22T08:23:18;21.80;92.30
2873;DHT22;1444;49.166;7.312;2023-07-22T08:25:45;21.80;92.60
2873;DHT22;1444;49.166;7.312;2023-07-22T08:28:12;22.00;92.80
2873;DHT22;1444;49.166;7.312;2023-07-22T08:30:40;22.20;92.40
2873;DHT22;1444;49.166;7.312;2023-07-22T08:33:08;22.40;91.90
2873;DHT22;1444;49.166;7.312;2023-07-22T08:35:35;22.80;92.20
2873;DHT22;1444;49.166;7.312;2023-07-22T08:38:02;22.80;92.30
2873;DHT22;1444;49.166;7.312;2023-07-22T08:40:33;23.00;91.50
2873;DHT22;1444;49.166;7.312;2023-07-22T08:43:00;23.10;92.50
2873;DHT22;1444;49.166;7.312;2023-07-22T08:45:30;23.20;90.50
2873;DHT22;1444;49.166;7.312;2023-07-22T08:47:59;23.20;90.60
2873;DHT22;1444;49.166;7.312;2023-07-22T08:50:30;23.40;91.30
2873;DHT22;1444;49.166;7.312;2023-07-22T08:53:01;23.50;90.20
2873;DHT22;1444;49.166;7.312;2023-07-22T08:55:29;23.50;90.00
2873;DHT22;1444;49.166;7.312;2023-07-22T08:57:56;23.60;90.80
2873;DHT22;1444;49.166;7.312;2023-07-22T09:00:24;23.70;88.40
2873;DHT22;1444;49.166;7.312;2023-07-22T09:02:51;23.70;89.00
2873;DHT22;1444;49.166;7.312;2023-07-22T09:05:20;23.90;85.70
2873;DHT22;1444;49.166;7.312;2023-07-22T09:07:48;24.00;86.80
2873;DHT22;1444;49.166;7.312;2023-07-22T09:10:15;24.10;89.60
2873;DHT22;1444;49.166;7.312;2023-07-22T09:12:42;24.20;88.90
2873;DHT22;1444;49.166;7.312;2023-07-22T09:15:12;24.40;86.50
2873;DHT22;1444;49.166;7.312;2023-07-22T09:17:39;24.40;85.30
2873;DHT22;1444;49.166;7.312;2023-07-22T09:20:07;24.40;84.90
2873;DHT22;1444;49.166;7.312;2023-07-22T09:22:36;24.20;84.30
2873;DHT22;1444;49.166;7.312;2023-07-22T09:25:13;24.10;84.00
2873;DHT22;1444;49.166;7.312;2023-07-22T09:27:41;24.10;85.80
2873;DHT22;1444;49.166;7.312;2023-07-22T09:30:21;24.10;83.70
2873;DHT22;1444;49.166;7.312;2023-07-22T09:32:48;24.00;83.40
2873;DHT22;1444;49.166;7.312;2023-07-22T09:35:16;23.90;83.80
2873;DHT22;1444;49.166;7.312;2023-07-22T09:37:45;24.00;83.00
2873;DHT22;1444;49.166;7.312;2023-07-22T09:40:18;24.10;84.10
2873;DHT22;1444;49.166;7.312;2023-07-22T09:42:47;24.00;84.60
2873;DHT22;1444;49.166;7.312;2023-07-22T09:45:14;24.30;85.50
2873;DHT22;1444;49.166;7.312;2023-07-22T09:47:41;24.50;84.60
2873;DHT22;1444;49.166;7.312;2023-07-22T09:50:11;24.70;85.70
2873;DHT22;1444;49.166;7.312;2023-07-22T09:52:45;24.80;82.00
2873;DHT22;1444;49.166;7.312;2023-07-22T09:55:14;24.90;83.70
2873;DHT22;1444;49.166;7.312;2023-07-22T09:57:44;24.90;81.60
2873;DHT22;1444;49.166;7.312;2023-07-22T10:00:12;24.60;82.60
2873;DHT22;1444;49.166;7.312;2023-07-22T10:02:40;24.60;80.40
2873;DHT22;1444;49.166;7.312;2023-07-22T10:05:12;24.50;79.80
2873;DHT22;1444;49.166;7.312;2023-07-22T10:07:44;24.50;82.40
2873;DHT22;1444;49.166;7.312;2023-07-22T10:10:13;24.50;79.40
2873;DHT22;1444;49.166;7.312;2023-07-22T10:12:41;24.40;79.70
2873;DHT22;1444;49.166;7.312;2023-07-22T10:15:10;24.60;83.40
2873;DHT22;1444;49.166;7.312;2023-07-22T10:17:38;24.80;85.00
2873;DHT22;1444;49.166;7.312;2023-07-22T10:20:06;24.70;80.60
2873;DHT22;1444;49.166;7.312;2023-07-22T10:22:37;24.80;79.30
2873;DHT22;1444;49.166;7.312;2023-07-22T10:25:08;25.10;78.20
2873;DHT22;1444;49.166;7.312;2023-07-22T10:27:35;25.50;81.60
2873;DHT22;1444;49.166;7.312;2023-07-22T10:30:06;25.60;72.40
2873;DHT22;1444;49.166;7.312;2023-07-22T10:32:38;25.50;73.60
2873;DHT22;1444;49.166;7.312;2023-07-22T10:35:08;25.40;73.40
2873;DHT22;1444;49.166;7.312;2023-07-22T10:37:37;25.30;75.60
2873;DHT22;1444;49.166;7.312;2023-07-22T10:40:19;25.20;75.90
2873;DHT22;1444;49.166;7.312;2023-07-22T10:42:53;24.90;77.20
2873;DHT22;1444;49.166;7.312;2023-07-22T10:45:25;24.80;77.10
2873;DHT22;1444;49.166;7.312;2023-07-22T10:48:01;24.60;76.50
2873;DHT22;1444;49.166;7.312;2023-07-22T10:50:42;24.60;75.60
2873;DHT22;1444;49.166;7.312;2023-07-22T10:53:13;24.60;75.70
2873;DHT22;1444;49.166;7.312;2023-07-22T10:56:04;24.40;74.20
2873;DHT22;1444;49.166;7.312;2023-07-22T10:58:32;24.40;76.10
2873;DHT22;1444;49.166;7.312;2023-07-22T11:01:21;24.40;76.30
2873;DHT22;1444;49.166;7.312;2023-07-22T11:04:23;24.50;78.60
2873;DHT22;1444;49.166;7.312;2023-07-22T11:06:59;24.40;78.10
2873;DHT22;1444;49.166;7.312;2023-07-22T11:09:36;25.00;78.50
2873;DHT22;1444;49.166;7.312;2023-07-22T11:12:06;25.00;74.80
2873;DHT22;1444;49.166;7.312;2023-07-22T11:14:34;25.00;73.50
2873;DHT22;1444;49.166;7.312;2023-07-22T11:17:03;25.30;76.60
2873;DHT22;1444;49.166;7.312;2023-07-22T11:19:31;25.10;71.90
2873;DHT22;1444;49.166;7.312;2023-07-22T11:21:58;25.00;73.30
2873;DHT22;1444;49.166;7.312;2023-07-22T11:24:26;25.00;73.00
2873;DHT22;1444;49.166;7.312;2023-07-22T11:26:54;24.90;74.30
2873;DHT22;1444;49.166;7.312;2023-07-22T11:29:22;24.70;72.50
2873;DHT22;1444;49.166;7.312;2023-07-22T11:31:50;24.60;72.80
2873;DHT22;1444;49.166;7.312;2023-07-22T11:34:18;24.70;74.00
2873;DHT22;1444;49.166;7.312;2023-07-22T11:36:46;25.10;76.60
2873;DHT22;1444;49.166;7.312;2023-07-22T11:39:15;25.50;73.70
2873;DHT22;1444;49.166;7.312;2023-07-22T11:41:42;25.60;72.30
2873;DHT22;1444;49.166;7.312;2023-07-22T11:44:11;25.80;73.60
2873;DHT22;1444;49.166;7.312;2023-07-22T11:46:51;25.90;74.00
2873;DHT22;1444;49.166;7.312;2023-07-22T11:49:26;26.00;70.00
2873;DHT22;1444;49.166;7.312;2023-07-22T11:51:58;26.10;70.50
2873;DHT22;1444;49.166;7.312;2023-07-22T11:54:25;26.10;71.60
2873;DHT22;1444;49.166;7.312;2023-07-22T11:56:53;26.40;73.30
2873;DHT22;1444;49.166;7.312;2023-07-22T11:59:33;26.50;72.10
2873;DHT22;1444;49.166;7.312;2023-07-22T12:02:02;26.40;69.80
2873;DHT22;1444;49.166;7.312;2023-07-22T12:04:31;26.40;70.90
2873;DHT22;1444;49.166;7.312;2023-07-22T12:06:58;26.30;71.40
2873;DHT22;1444;49.166;7.312;2023-07-22T12:09:25;26.20;71.30
2873;DHT22;1444;49.166;7.312;2023-07-22T12:11:55;26.00;70.90
2873;DHT22;1444;49.166;7.312;2023-07-22T12:14:24;26.00;73.60
2873;DHT22;1444;49.166;7.312;2023-07-22T12:16:55;26.00;71.00
2873;DHT22;1444;49.166;7.312;2023-07-22T12:19:24;25.90;71.10
2873;DHT22;1444;49.166;7.312;2023-07-22T12:21:53;26.00;70.80
2873;DHT22;1444;49.166;7.312;2023-07-22T12:24:20;26.10;73.70
2873;DHT22;1444;49.166;7.312;2023-07-22T12:26:47;26.10;72.70
2873;DHT22;1444;49.166;7.312;2023-07-22T12:29:14;26.00;67.50
2873;DHT22;1444;49.166;7.312;2023-07-22T12:31:40;26.10;65.70
2873;DHT22;1444;49.166;7.312;2023-07-22T12:34:07;26.20;66.70
2873;DHT22;1444;49.166;7.312;2023-07-22T12:36:35;25.90;65.10
2873;DHT22;1444;49.166;7.312;2023-07-22T12:39:02;25.90;66.20
2873;DHT22;1444;49.166;7.312;2023-07-22T12:41:30;25.80;65.90
2873;DHT22;1444;49.166;7.312;2023-07-22T12:43:57;25.80;68.10
2873;DHT22;1444;49.166;7.312;2023-07-22T12:46:24;26.00;68.40
2873;DHT22;1444;49.166;7.312;2023-07-22T12:48:51;26.10;69.20
2873;DHT22;1444;49.166;7.312;2023-07-22T12:51:18;26.30;67.40
2873;DHT22;1444;49.166;7.312;2023-07-22T12:53:46;26.30;67.80
2873;DHT22;1444;49.166;7.312;2023-07-22T12:56:13;26.30;67.70
2873;DHT22;1444;49.166;7.312;2023-07-22T12:58:40;26.20;67.30
2873;DHT22;1444;49.166;7.312;2023-07-22T13:01:07;26.10;65.70
2873;DHT22;1444;49.166;7.312;2023-07-22T13:03:34;26.00;67.40
2873;DHT22;1444;49.166;7.312;2023-07-22T13:06:01;25.90;66.30
2873;DHT22;1444;49.166;7.312;2023-07-22T13:08:27;25.90;66.80
2873;DHT22;1444;49.166;7.312;2023-07-22T13:10:56;25.80;66.80
2873;DHT22;1444;49.166;7.312;2023-07-22T13:13:23;25.60;67.40
2873;DHT22;1444;49.166;7.312;2023-07-22T13:15:50;25.70;69.50
2873;DHT22;1444;49.166;7.312;2023-07-22T13:18:16;25.50;68.90
2873;DHT22;1444;49.166;7.312;2023-07-22T13:20:43;25.50;67.70
2873;DHT22;1444;49.166;7.312;2023-07-22T13:23:10;25.80;69.30
2873;DHT22;1444;49.166;7.312;2023-07-22T13:25:37;25.60;67.60
2873;DHT22;1444;49.166;7.312;2023-07-22T13:28:05;25.50;68.00
2873;DHT22;1444;49.166;7.312;2023-07-22T13:30:32;25.50;67.80
2873;DHT22;1444;49.166;7.312;2023-07-22T13:32:59;25.50;70.20
2873;DHT22;1444;49.166;7.312;2023-07-22T13:35:26;25.70;68.90
2873;DHT22;1444;49.166;7.312;2023-07-22T13:37:53;25.80;69.70
2873;DHT22;1444;49.166;7.312;2023-07-22T13:40:19;25.80;66.60
2873;DHT22;1444;49.166;7.312;2023-07-22T13:42:46;25.90;66.00
2873;DHT22;1444;49.166;7.312;2023-07-22T13:45:14;26.00;66.80
2873;DHT22;1444;49.166;7.312;2023-07-22T13:47:41;26.00;66.80
2873;DHT22;1444;49.166;7.312;2023-07-22T13:50:09;26.10;67.60
2873;DHT22;1444;49.166;7.312;2023-07-22T13:52:36;26.30;70.00
2873;DHT22;1444;49.166;7.312;2023-07-22T13:55:03;26.60;67.40
2873;DHT22;1444;49.166;7.312;2023-07-22T13:57:30;26.70;66.30
2873;DHT22;1444;49.166;7.312;2023-07-22T13:59:57;26.80;66.30
2873;DHT22;1444;49.166;7.312;2023-07-22T14:02:26;26.90;63.60
2873;DHT22;1444;49.166;7.312;2023-07-22T14:04:53;26.70;66.50
2873;DHT22;1444;49.166;7.312;2023-07-22T14:07:19;26.80;68.00
2873;DHT22;1444;49.166;7.312;2023-07-22T14:09:46;26.50;65.40
2873;DHT22;1444;49.166;7.312;2023-07-22T14:12:13;26.30;65.70
2873;DHT22;1444;49.166;7.312;2023-07-22T14:14:40;26.10;62.80
2873;DHT22;1444;49.166;7.312;2023-07-22T14:17:07;26.10;64.60
2873;DHT22;1444;49.166;7.312;2023-07-22T14:19:35;26.30;65.70
2873;DHT22;1444;49.166;7.312;2023-07-22T14:22:02;26.60;66.90
2873;DHT22;1444;49.166;7.312;2023-07-22T14:24:29;26.80;66.90
2873;DHT22;1444;49.166;7.312;2023-07-22T14:26:56;26.80;63.90
2873;DHT22;1444;49.166;7.312;2023-07-22T14:29:23;26.80;65.30
2873;DHT22;1444;49.166;7.312;2023-07-22T14:31:51;26.60;64.00
2873;DHT22;1444;49.166;7.312;2023-07-22T14:34:18;26.70;65.20
2873;DHT22;1444;49.166;7.312;2023-07-22T14:36:46;26.90;66.00
2873;DHT22;1444;49.166;7.312;2023-07-22T14:39:13;27.00;64.70
2873;DHT22;1444;49.166;7.312;2023-07-22T14:41:40;27.00;65.80
2873;DHT22;1444;49.166;7.312;2023-07-22T14:44:08;27.10;63.00
2873;DHT22;1444;49.166;7.312;2023-07-22T14:46:35;27.00;63.60
2873;DHT22;1444;49.166;7.312;2023-07-22T14:49:02;27.10;67.10
2873;DHT22;1444;49.166;7.312;2023-07-22T14:51:29;27.20;62.80
2873;DHT22;1444;49.166;7.312;2023-07-22T14:53:57;27.20;64.30
2873;DHT22;1444;49.166;7.312;2023-07-22T14:56:24;27.20;63.10
2873;DHT22;1444;49.166;7.312;2023-07-22T14:58:51;27.40;63.30
2873;DHT22;1444;49.166;7.312;2023-07-22T15:01:17;27.60;65.10
2873;DHT22;1444;49.166;7.312;2023-07-22T15:03:44;27.70;62.90
2873;DHT22;1444;49.166;7.312;2023-07-22T15:06:11;27.70;61.80
2873;DHT22;1444;49.166;7.312;2023-07-22T15:08:38;27.80;61.20
2873;DHT22;1444;49.166;7.312;2023-07-22T15:11:07;27.90;63.00
2873;DHT22;1444;49.166;7.312;2023-07-22T15:13:34;27.70;60.00
2873;DHT22;1444;49.166;7.312;2023-07-22T15:16:01;27.70;59.50
2873;DHT22;1444;49.166;7.312;2023-07-22T15:18:28;27.80;62.80
2873;DHT22;1444;49.166;7.312;2023-07-22T15:20:55;27.80;60.40
2873;DHT22;1444;49.166;7.312;2023-07-22T15:23:22;27.90;63.40
2873;DHT22;1444;49.166;7.312;2023-07-22T15:25:49;27.90;64.20
2873;DHT22;1444;49.166;7.312;2023-07-22T15:28:17;27.80;62.20
2873;DHT22;1444;49.166;7.312;2023-07-22T15:30:44;27.60;60.50
2873;DHT22;1444;49.166;7.312;2023-07-22T15:33:10;27.40;61.60
2873;DHT22;1444;49.166;7.312;2023-07-22T15:35:38;27.30;63.80
2873;DHT22;1444;49.166;7.312;2023-07-22T15:38:04;27.20;62.40
2873;DHT22;1444;49.166;7.312;2023-07-22T15:40:34;27.00;62.90
2873;DHT22;1444;49.166;7.312;2023-07-22T15:43:01;27.20;62.60
2873;DHT22;1444;49.166;7.312;2023-07-22T15:45:30;27.20;63.50
2873;DHT22;1444;49.166;7.312;2023-07-22T15:47:57;27.20;63.70
2873;DHT22;1444;49.166;7.312;2023-07-22T15:50:25;27.20;62.70
2873;DHT22;1444;49.166;7.312;2023-07-22T15:52:52;27.50;64.60
2873;DHT22;1444;49.166;7.312;2023-07-22T15:55:19;27.40;59.80
2873;DHT22;1444;49.166;7.312;2023-07-22T15:57:47;27.40;61.10
2873;DHT22;1444;49.166;7.312;2023-07-22T16:00:14;27.50;61.30
2873;DHT22;1444;49.166;7.312;2023-07-22T16:02:42;27.50;61.50
2873;DHT22;1444;49.166;7.312;2023-07-22T16:05:09;27.60;63.00
2873;DHT22;1444;49.166;7.312;2023-07-22T16:07:36;27.70;60.40